sensor_id;sensor_type;location;lat;lon;timestamp;P1;durP1;ratioP1;P2;durP2;ratioP2
45114;SDS011;30877;43.706;10.780;2022-11-20T00:01:08;3.63;;;2.10;;
45114;SDS011;30877;43.706;10.780;2022-11-20T00:03:37;2.63;;;1.92;;
45114;SDS011;30877;43.706;10.780;2022-11-20T00:06:05;2.60;;;1.95;;
45114;SDS011;30877;43.706;10.780;2022-11-20T00:08:36;2.88;;;2.10;;
45114;SDS011;30877;43.706;10.780;2022-11-20T00:11:04;2.88;;;2.00;;
45114;SDS011;30877;43.706;10.780;2022-11-20T00:13:41;2.75;;;1.80;;
45114;SDS011;30877;43.706;10.780;2022-11-20T00:16:10;3.13;;;2.13;;
45114;SDS011;30877;43.706;10.780;2022-11-20T00:18:40;4.45;;;2.67;;
45114;SDS011;30877;43.706;10.780;2022-11-20T00:21:12;3.67;;;2.75;;
45114;SDS011;30877;43.706;10.780;2022-11-20T00:23:41;2.85;;;2.28;;
45114;SDS011;30877;43.706;10.780;2022-11-20T00:26:09;3.03;;;2.10;;
45114;SDS011;30877;43.706;10.780;2022-11-20T00:28:39;4.85;;;2.60;;
45114;SDS011;30877;43.706;10.780;2022-11-20T00:31:08;3.42;;;2.45;;
45114;SDS011;30877;43.706;10.780;2022-11-20T00:33:38;3.72;;;2.80;;
45114;SDS011;30877;43.706;10.780;2022-11-20T00:36:07;5.22;;;2.47;;
45114;SDS011;30877;43.706;10.780;2022-11-20T00:38:37;4.22;;;3.00;;
45114;SDS011;30877;43.706;10.780;2022-11-20T00:41:05;3.42;;;2.80;;
45114;SDS011;30877;43.706;10.780;2022-11-20T00:43:35;16.60;;;4.38;;
45114;SDS011;30877;43.706;10.780;2022-11-20T00:46:05;5.35;;;3.30;;
45114;SDS011;30877;43.706;10.780;2022-11-20T00:48:35;3.65;;;2.88;;
45114;SDS011;30877;43.706;10.780;2022-11-20T00:51:03;4.57;;;2.88;;
45114;SDS011;30877;43.706;10.780;2022-11-20T00:53:32;2.88;;;2.50;;
45114;SDS011;30877;43.706;10.780;2022-11-20T00:56:00;2.50;;;2.08;;
45114;SDS011;30877;43.706;10.780;2022-11-20T00:58:30;4.63;;;2.50;;
45114;SDS011;30877;43.706;10.780;2022-11-20T01:01:02;3.85;;;2.75;;
45114;SDS011;30877;43.706;10.780;2022-11-20T01:03:32;2.55;;;2.08;;
45114;SDS011;30877;43.706;10.780;2022-11-20T01:06:02;3.42;;;2.33;;
45114;SDS011;30877;43.706;10.780;2022-11-20T01:08:31;2.83;;;2.05;;
45114;SDS011;30877;43.706;10.780;2022-11-20T01:11:00;2.78;;;2.08;;
45114;SDS011;30877;43.706;10.780;2022-11-20T01:13:29;3.08;;;1.90;;
45114;SDS011;30877;43.706;10.780;2022-11-20T01:16:04;3.63;;;1.90;;
45114;SDS011;30877;43.706;10.780;2022-11-20T01:18:33;4.78;;;2.55;;
45114;SDS011;30877;43.706;10.780;2022-11-20T01:21:04;2.35;;;2.10;;
45114;SDS011;30877;43.706;10.780;2022-11-20T01:23:35;3.40;;;2.40;;
45114;SDS011;30877;43.706;10.780;2022-11-20T01:26:05;6.35;;;4.50;;
45114;SDS011;30877;43.706;10.780;2022-11-20T01:28:35;5.22;;;3.17;;
45114;SDS011;30877;43.706;10.780;2022-11-20T01:31:10;12.25;;;7.38;;
45114;SDS011;30877;43.706;10.780;2022-11-20T01:33:40;5.05;;;3.70;;
45114;SDS011;30877;43.706;10.780;2022-11-20T01:36:10;7.47;;;4.40;;
45114;SDS011;30877;43.706;10.780;2022-11-20T01:38:39;6.30;;;5.28;;
45114;SDS011;30877;43.706;10.780;2022-11-20T01:41:07;6.32;;;3.33;;
45114;SDS011;30877;43.706;10.780;2022-11-20T01:43:36;3.55;;;2.85;;
45114;SDS011;30877;43.706;10.780;2022-11-20T01:46:06;4.68;;;3.08;;
45114;SDS011;30877;43.706;10.780;2022-11-20T01:48:45;4.32;;;3.20;;
45114;SDS011;30877;43.706;10.780;2022-11-20T01:51:22;4.35;;;2.65;;
45114;SDS011;30877;43.706;10.780;2022-11-20T01:53:55;3.67;;;2.55;;
45114;SDS011;30877;43.706;10.780;2022-11-20T01:56:27;3.10;;;2.30;;
45114;SDS011;30877;43.706;10.780;2022-11-20T01:58:59;3.70;;;2.47;;
45114;SDS011;30877;43.706;10.780;2022-11-20T02:01:28;3.05;;;2.38;;
45114;SDS011;30877;43.706;10.780;2022-11-20T02:03:57;3.83;;;2.22;;
45114;SDS011;30877;43.706;10.780;2022-11-20T02:06:28;2.85;;;2.38;;
45114;SDS011;30877;43.706;10.780;2022-11-20T02:08:57;3.83;;;2.60;;
45114;SDS011;30877;43.706;10.780;2022-11-20T02:11:25;3.65;;;2.55;;
45114;SDS011;30877;43.706;10.780;2022-11-20T02:13:53;3.75;;;2.85;;
45114;SDS011;30877;43.706;10.780;2022-11-20T02:16:23;5.53;;;3.10;;
45114;SDS011;30877;43.706;10.780;2022-11-20T02:18:53;4.10;;;2.63;;
45114;SDS011;30877;43.706;10.780;2022-11-20T02:21:29;4.50;;;2.70;;
45114;SDS011;30877;43.706;10.780;2022-11-20T02:24:04;4.32;;;3.40;;
45114;SDS011;30877;43.706;10.780;2022-11-20T02:26:35;3.50;;;2.83;;
45114;SDS011;30877;43.706;10.780;2022-11-20T02:29:08;5.30;;;3.60;;
45114;SDS011;30877;43.706;10.780;2022-11-20T02:31:37;6.72;;;3.35;;
45114;SDS011;30877;43.706;10.780;2022-11-20T02:34:08;6.60;;;3.47;;
45114;SDS011;30877;43.706;10.780;2022-11-20T02:36:36;4.88;;;3.40;;
45114;SDS011;30877;43.706;10.780;2022-11-20T02:39:09;3.20;;;2.67;;
45114;SDS011;30877;43.706;10.780;2022-11-20T02:41:40;5.80;;;3.08;;
45114;SDS011;30877;43.706;10.780;2022-11-20T02:44:08;4.28;;;3.03;;
45114;SDS011;30877;43.706;10.780;2022-11-20T02:46:36;3.92;;;3.03;;
45114;SDS011;30877;43.706;10.780;2022-11-20T02:49:04;4.20;;;2.80;;
45114;SDS011;30877;43.706;10.780;2022-11-20T02:51:32;4.93;;;3.90;;
45114;SDS011;30877;43.706;10.780;2022-11-20T02:54:14;8.13;;;3.40;;
45114;SDS011;30877;43.706;10.780;2022-11-20T02:56:43;4.95;;;3.22;;
45114;SDS011;30877;43.706;10.780;2022-11-20T02:59:11;3.92;;;2.40;;
45114;SDS011;30877;43.706;10.780;2022-11-20T03:01:39;3.92;;;2.88;;
45114;SDS011;30877;43.706;10.780;2022-11-20T03:04:07;3.83;;;2.50;;
45114;SDS011;30877;43.706;10.780;2022-11-20T03:06:36;5.15;;;2.78;;
45114;SDS011;30877;43.706;10.780;2022-11-20T03:09:03;4.70;;;2.80;;
45114;SDS011;30877;43.706;10.780;2022-11-20T03:11:33;6.68;;;3.38;;
45114;SDS011;30877;43.706;10.780;2022-11-20T03:14:01;3.10;;;2.47;;
45114;SDS011;30877;43.706;10.780;2022-11-20T03:16:30;3.97;;;3.25;;
45114;SDS011;30877;43.706;10.780;2022-11-20T03:18:59;3.88;;;2.97;;
45114;SDS011;30877;43.706;10.780;2022-11-20T03:21:27;5.13;;;2.88;;
45114;SDS011;30877;43.706;10.780;2022-11-20T03:23:55;7.50;;;3.40;;
45114;SDS011;30877;43.706;10.780;2022-11-20T03:26:24;4.45;;;2.92;;
45114;SDS011;30877;43.706;10.780;2022-11-20T03:28:55;4.05;;;2.80;;
45114;SDS011;30877;43.706;10.780;2022-11-20T03:31:25;3.75;;;2.90;;
45114;SDS011;30877;43.706;10.780;2022-11-20T03:33:55;3.95;;;2.58;;
45114;SDS011;30877;43.706;10.780;2022-11-20T03:36:24;3.35;;;2.90;;
45114;SDS011;30877;43.706;10.780;2022-11-20T03:38:53;4.85;;;3.40;;
45114;SDS011;30877;43.706;10.780;2022-11-20T03:41:22;3.72;;;3.13;;
45114;SDS011;30877;43.706;10.780;2022-11-20T03:43:52;3.67;;;3.03;;
45114;SDS011;30877;43.706;10.780;2022-11-20T03:46:23;4.18;;;3.08;;
45114;SDS011;30877;43.706;10.780;2022-11-20T03:48:51;4.45;;;3.17;;
45114;SDS011;30877;43.706;10.780;2022-11-20T03:51:20;4.88;;;3.20;;
45114;SDS011;30877;43.706;10.780;2022-11-20T03:53:50;5.80;;;3.10;;
45114;SDS011;30877;43.706;10.780;2022-11-20T03:56:20;5.28;;;2.92;;
45114;SDS011;30877;43.706;10.780;2022-11-20T03:58:50;3.83;;;3.00;;
45114;SDS011;30877;43.706;10.780;2022-11-20T04:01:19;3.40;;;2.88;;
45114;SDS011;30877;43.706;10.780;2022-11-20T04:03:48;5.25;;;2.42;;
45114;SDS011;30877;43.706;10.780;2022-11-20T04:06:19;3.60;;;2.05;;
45114;SDS011;30877;43.706;10.780;2022-11-20T04:08:48;2.72;;;2.00;;
45114;SDS011;30877;43.706;10.780;2022-11-20T04:11:20;2.75;;;1.38;;
45114;SDS011;30877;43.706;10.780;2022-11-20T04:13:50;2.38;;;1.55;;
45114;SDS011;30877;43.706;10.780;2022-11-20T04:16:21;1.90;;;1.23;;
45114;SDS011;30877;43.706;10.780;2022-11-20T04:18:51;2.15;;;1.15;;
45114;SDS011;30877;43.706;10.780;2022-11-20T04:21:19;1.73;;;1.05;;
45114;SDS011;30877;43.706;10.780;2022-11-20T04:23:48;1.40;;;0.90;;
45114;SDS011;30877;43.706;10.780;2022-11-20T04:26:16;0.98;;;0.82;;
45114;SDS011;30877;43.706;10.780;2022-11-20T04:28:44;5.18;;;1.13;;
45114;SDS011;30877;43.706;10.780;2022-11-20T04:31:13;1.65;;;1.08;;
45114;SDS011;30877;43.706;10.780;2022-11-20T04:33:44;0.98;;;0.70;;
45114;SDS011;30877;43.706;10.780;2022-11-20T04:36:13;1.70;;;1.00;;
45114;SDS011;30877;43.706;10.780;2022-11-20T04:38:43;1.10;;;0.77;;
45114;SDS011;30877;43.706;10.780;2022-11-20T04:41:13;2.40;;;1.05;;
45114;SDS011;30877;43.706;10.780;2022-11-20T04:43:45;3.17;;;0.80;;
45114;SDS011;30877;43.706;10.780;2022-11-20T04:46:15;1.70;;;1.02;;
45114;SDS011;30877;43.706;10.780;2022-11-20T04:48:45;1.48;;;0.80;;
45114;SDS011;30877;43.706;10.780;2022-11-20T04:51:13;2.28;;;1.17;;
45114;SDS011;30877;43.706;10.780;2022-11-20T04:53:42;1.67;;;0.90;;
45114;SDS011;30877;43.706;10.780;2022-11-20T04:56:11;1.45;;;1.08;;
45114;SDS011;30877;43.706;10.780;2022-11-20T04:58:39;1.40;;;0.80;;
45114;SDS011;30877;43.706;10.780;2022-11-20T05:01:09;2.35;;;1.20;;
45114;SDS011;30877;43.706;10.780;2022-11-20T05:03:39;2.30;;;0.90;;
45114;SDS011;30877;43.706;10.780;2022-11-20T05:06:10;3.05;;;1.42;;
45114;SDS011;30877;43.706;10.780;2022-11-20T05:08:42;2.67;;;1.20;;
45114;SDS011;30877;43.706;10.780;2022-11-20T05:11:11;2.85;;;1.80;;
45114;SDS011;30877;43.706;10.780;2022-11-20T05:13:40;6.80;;;2.28;;
45114;SDS011;30877;43.706;10.780;2022-11-20T05:16:09;4.85;;;3.22;;
45114;SDS011;30877;43.706;10.780;2022-11-20T05:18:39;4.32;;;2.05;;
45114;SDS011;30877;43.706;10.780;2022-11-20T05:21:08;4.15;;;2.30;;
45114;SDS011;30877;43.706;10.780;2022-11-20T05:23:38;4.38;;;2.20;;
45114;SDS011;30877;43.706;10.780;2022-11-20T05:26:08;7.15;;;2.05;;
45114;SDS011;30877;43.706;10.780;2022-11-20T05:28:39;6.40;;;2.30;;
45114;SDS011;30877;43.706;10.780;2022-11-20T05:31:08;7.40;;;3.00;;
45114;SDS011;30877;43.706;10.780;2022-11-20T05:33:39;4.35;;;2.90;;
45114;SDS011;30877;43.706;10.780;2022-11-20T05:36:07;4.38;;;2.72;;
45114;SDS011;30877;43.706;10.780;2022-11-20T05:38:38;4.55;;;2.78;;
45114;SDS011;30877;43.706;10.780;2022-11-20T05:41:07;5.15;;;2.83;;
45114;SDS011;30877;43.706;10.780;2022-11-20T05:43:36;4.07;;;2.85;;
45114;SDS011;30877;43.706;10.780;2022-11-20T05:46:06;4.28;;;2.70;;
45114;SDS011;30877;43.706;10.780;2022-11-20T05:48:35;3.75;;;2.90;;
45114;SDS011;30877;43.706;10.780;2022-11-20T05:51:04;3.83;;;2.67;;
45114;SDS011;30877;43.706;10.780;2022-11-20T05:53:33;4.20;;;2.80;;
45114;SDS011;30877;43.706;10.780;2022-11-20T05:56:04;4.45;;;3.03;;
45114;SDS011;30877;43.706;10.780;2022-11-20T05:58:33;3.65;;;2.50;;
45114;SDS011;30877;43.706;10.780;2022-11-20T06:01:05;2.70;;;2.05;;
45114;SDS011;30877;43.706;10.780;2022-11-20T06:03:35;2.28;;;1.77;;
45114;SDS011;30877;43.706;10.780;2022-11-20T06:06:03;1.75;;;1.40;;
45114;SDS011;30877;43.706;10.780;2022-11-20T06:08:32;1.65;;;1.33;;
45114;SDS011;30877;43.706;10.780;2022-11-20T06:11:04;2.47;;;1.30;;
45114;SDS011;30877;43.706;10.780;2022-11-20T06:13:33;1.52;;;1.08;;
45114;SDS011;30877;43.706;10.780;2022-11-20T06:16:07;1.08;;;0.98;;
45114;SDS011;30877;43.706;10.780;2022-11-20T06:18:36;2.17;;;1.00;;
45114;SDS011;30877;43.706;10.780;2022-11-20T06:21:05;0.90;;;0.70;;
45114;SDS011;30877;43.706;10.780;2022-11-20T06:23:34;2.35;;;1.00;;
45114;SDS011;30877;43.706;10.780;2022-11-20T06:26:04;1.33;;;1.00;;
45114;SDS011;30877;43.706;10.780;2022-11-20T06:28:33;2.08;;;0.88;;
45114;SDS011;30877;43.706;10.780;2022-11-20T06:31:02;1.73;;;0.85;;
45114;SDS011;30877;43.706;10.780;2022-11-20T06:33:30;1.45;;;0.80;;
45114;SDS011;30877;43.706;10.780;2022-11-20T06:35:58;1.05;;;0.80;;
45114;SDS011;30877;43.706;10.780;2022-11-20T06:38:33;0.95;;;0.73;;
45114;SDS011;30877;43.706;10.780;2022-11-20T06:41:00;1.20;;;0.80;;
45114;SDS011;30877;43.706;10.780;2022-11-20T06:43:31;0.70;;;0.65;;
45114;SDS011;30877;43.706;10.780;2022-11-20T06:45:59;3.50;;;0.85;;
45114;SDS011;30877;43.706;10.780;2022-11-20T06:48:27;1.60;;;0.80;;
45114;SDS011;30877;43.706;10.780;2022-11-20T06:50:55;1.90;;;0.90;;
45114;SDS011;30877;43.706;10.780;2022-11-20T06:53:24;0.95;;;0.77;;
45114;SDS011;30877;43.706;10.780;2022-11-20T06:55:52;1.58;;;0.90;;
45114;SDS011;30877;43.706;10.780;2022-11-20T06:58:22;1.63;;;1.00;;
45114;SDS011;30877;43.706;10.780;2022-11-20T07:00:51;4.35;;;1.42;;
45114;SDS011;30877;43.706;10.780;2022-11-20T07:03:19;3.72;;;2.03;;
45114;SDS011;30877;43.706;10.780;2022-11-20T07:05:47;2.50;;;2.03;;
45114;SDS011;30877;43.706;10.780;2022-11-20T07:08:15;3.50;;;1.95;;
45114;SDS011;30877;43.706;10.780;2022-11-20T07:10:43;3.90;;;2.00;;
45114;SDS011;30877;43.706;10.780;2022-11-20T07:13:11;14.55;;;2.15;;
45114;SDS011;30877;43.706;10.780;2022-11-20T07:15:39;5.53;;;1.92;;
45114;SDS011;30877;43.706;10.780;2022-11-20T07:18:08;8.93;;;1.85;;
45114;SDS011;30877;43.706;10.780;2022-11-20T07:20:36;5.35;;;1.95;;
45114;SDS011;30877;43.706;10.780;2022-11-20T07:23:04;5.45;;;1.95;;
45114;SDS011;30877;43.706;10.780;2022-11-20T07:25:32;11.07;;;2.40;;
45114;SDS011;30877;43.706;10.780;2022-11-20T07:28:00;9.13;;;2.97;;
45114;SDS011;30877;43.706;10.780;2022-11-20T07:30:28;8.65;;;2.72;;
45114;SDS011;30877;43.706;10.780;2022-11-20T07:32:56;32.95;;;3.83;;
45114;SDS011;30877;43.706;10.780;2022-11-20T07:35:26;3.65;;;3.00;;
45114;SDS011;30877;43.706;10.780;2022-11-20T07:37:54;9.50;;;3.38;;
45114;SDS011;30877;43.706;10.780;2022-11-20T07:40:22;8.88;;;2.97;;
45114;SDS011;30877;43.706;10.780;2022-11-20T07:42:50;18.58;;;3.08;;
45114;SDS011;30877;43.706;10.780;2022-11-20T07:45:19;19.40;;;3.47;;
45114;SDS011;30877;43.706;10.780;2022-11-20T07:47:50;29.38;;;3.17;;
45114;SDS011;30877;43.706;10.780;2022-11-20T07:50:18;14.98;;;3.13;;
45114;SDS011;30877;43.706;10.780;2022-11-20T07:52:48;9.30;;;2.63;;
45114;SDS011;30877;43.706;10.780;2022-11-20T07:55:15;10.48;;;3.08;;
45114;SDS011;30877;43.706;10.780;2022-11-20T07:57:43;36.78;;;4.07;;
45114;SDS011;30877;43.706;10.780;2022-11-20T08:00:12;34.78;;;3.55;;
45114;SDS011;30877;43.706;10.780;2022-11-20T08:02:41;25.73;;;5.07;;
45114;SDS011;30877;43.706;10.780;2022-11-20T08:05:08;24.67;;;3.60;;
45114;SDS011;30877;43.706;10.780;2022-11-20T08:07:37;9.02;;;3.17;;
45114;SDS011;30877;43.706;10.780;2022-11-20T08:10:07;17.92;;;3.40;;
45114;SDS011;30877;43.706;10.780;2022-11-20T08:12:42;19.25;;;3.25;;
45114;SDS011;30877;43.706;10.780;2022-11-20T08:15:30;16.88;;;2.95;;
45114;SDS011;30877;43.706;10.780;2022-11-20T08:21:01;6.85;;;2.75;;
45114;SDS011;30877;43.706;10.780;2022-11-20T08:23:30;6.20;;;2.15;;
45114;SDS011;30877;43.706;10.780;2022-11-20T08:26:00;8.63;;;2.58;;
45114;SDS011;30877;43.706;10.780;2022-11-20T08:28:28;5.32;;;2.83;;
45114;SDS011;30877;43.706;10.780;2022-11-20T08:30:57;4.13;;;2.78;;
45114;SDS011;30877;43.706;10.780;2022-11-20T08:33:26;6.90;;;3.50;;
45114;SDS011;30877;43.706;10.780;2022-11-20T08:35:57;3.97;;;3.50;;
45114;SDS011;30877;43.706;10.780;2022-11-20T08:38:26;7.75;;;3.78;;
45114;SDS011;30877;43.706;10.780;2022-11-20T08:40:55;6.35;;;4.25;;
45114;SDS011;30877;43.706;10.780;2022-11-20T08:43:44;11.90;;;5.82;;
45114;SDS011;30877;43.706;10.780;2022-11-20T08:46:12;6.97;;;4.43;;
45114;SDS011;30877;43.706;10.780;2022-11-20T08:48:41;5.15;;;4.40;;
45114;SDS011;30877;43.706;10.780;2022-11-20T08:51:09;6.78;;;4.47;;
45114;SDS011;30877;43.706;10.780;2022-11-20T08:53:37;9.85;;;5.20;;
45114;SDS011;30877;43.706;10.780;2022-11-20T08:56:06;7.80;;;4.22;;
45114;SDS011;30877;43.706;10.780;2022-11-20T08:58:34;5.18;;;3.90;;
45114;SDS011;30877;43.706;10.780;2022-11-20T09:01:23;5.57;;;4.38;;
45114;SDS011;30877;43.706;10.780;2022-11-20T09:03:51;5.13;;;4.28;;
45114;SDS011;30877;43.706;10.780;2022-11-20T09:06:21;7.30;;;5.32;;
45114;SDS011;30877;43.706;10.780;2022-11-20T09:08:51;8.38;;;7.07;;
45114;SDS011;30877;43.706;10.780;2022-11-20T09:11:19;11.27;;;6.32;;
45114;SDS011;30877;43.706;10.780;2022-11-20T09:13:47;7.43;;;5.40;;
45114;SDS011;30877;43.706;10.780;2022-11-20T09:16:15;4.97;;;4.45;;
45114;SDS011;30877;43.706;10.780;2022-11-20T09:18:44;5.22;;;4.53;;
45114;SDS011;30877;43.706;10.780;2022-11-20T09:21:12;8.48;;;5.70;;
45114;SDS011;30877;43.706;10.780;2022-11-20T09:23:41;12.00;;;9.20;;
45114;SDS011;30877;43.706;10.780;2022-11-20T09:26:10;9.18;;;6.45;;
45114;SDS011;30877;43.706;10.780;2022-11-20T09:28:39;7.72;;;6.78;;
45114;SDS011;30877;43.706;10.780;2022-11-20T09:31:08;7.30;;;6.03;;
45114;SDS011;30877;43.706;10.780;2022-11-20T09:33:41;6.10;;;5.43;;
45114;SDS011;30877;43.706;10.780;2022-11-20T09:36:11;6.40;;;5.68;;
45114;SDS011;30877;43.706;10.780;2022-11-20T09:38:39;6.80;;;5.88;;
45114;SDS011;30877;43.706;10.780;2022-11-20T09:41:12;5.93;;;5.15;;
45114;SDS011;30877;43.706;10.780;2022-11-20T09:43:58;6.43;;;5.30;;
45114;SDS011;30877;43.706;10.780;2022-11-20T09:49:18;9.50;;;8.20;;
45114;SDS011;30877;43.706;10.780;2022-11-20T09:52:09;7.03;;;5.50;;
45114;SDS011;30877;43.706;10.780;2022-11-20T09:54:46;5.95;;;4.00;;
45114;SDS011;30877;43.706;10.780;2022-11-20T09:57:17;4.03;;;3.47;;
45114;SDS011;30877;43.706;10.780;2022-11-20T09:59:49;4.28;;;3.67;;
45114;SDS011;30877;43.706;10.780;2022-11-20T10:02:25;5.28;;;4.43;;
45114;SDS011;30877;43.706;10.780;2022-11-20T10:04:57;4.63;;;3.88;;
45114;SDS011;30877;43.706;10.780;2022-11-20T10:07:32;5.18;;;3.80;;
45114;SDS011;30877;43.706;10.780;2022-11-20T10:10:13;4.78;;;3.22;;
45114;SDS011;30877;43.706;10.780;2022-11-20T10:12:51;2.80;;;2.55;;
45114;SDS011;30877;43.706;10.780;2022-11-20T10:15:32;3.70;;;2.72;;
45114;SDS011;30877;43.706;10.780;2022-11-20T10:18:18;3.40;;;2.80;;
45114;SDS011;30877;43.706;10.780;2022-11-20T10:20:58;3.17;;;2.53;;
45114;SDS011;30877;43.706;10.780;2022-11-20T10:23:44;4.45;;;2.63;;
45114;SDS011;30877;43.706;10.780;2022-11-20T10:26:26;7.35;;;2.90;;
45114;SDS011;30877;43.706;10.780;2022-11-20T10:29:07;3.92;;;2.47;;
45114;SDS011;30877;43.706;10.780;2022-11-20T10:31:39;9.27;;;2.53;;
45114;SDS011;30877;43.706;10.780;2022-11-20T10:34:14;4.70;;;2.35;;
45114;SDS011;30877;43.706;10.780;2022-11-20T10:36:50;2.17;;;1.70;;
45114;SDS011;30877;43.706;10.780;2022-11-20T10:39:27;2.30;;;1.80;;
45114;SDS011;30877;43.706;10.780;2022-11-20T10:42:01;3.40;;;1.80;;
45114;SDS011;30877;43.706;10.780;2022-11-20T10:44:29;2.90;;;1.77;;
45114;SDS011;30877;43.706;10.780;2022-11-20T10:47:24;2.42;;;1.67;;
45114;SDS011;30877;43.706;10.780;2022-11-20T10:49:55;2.65;;;1.65;;
45114;SDS011;30877;43.706;10.780;2022-11-20T10:52:26;3.47;;;1.70;;
45114;SDS011;30877;43.706;10.780;2022-11-20T10:55:09;3.50;;;1.95;;
45114;SDS011;30877;43.706;10.780;2022-11-20T10:57:50;3.03;;;1.35;;
45114;SDS011;30877;43.706;10.780;2022-11-20T11:02:51;2.45;;;1.30;;
45114;SDS011;30877;43.706;10.780;2022-11-20T11:05:23;3.20;;;1.60;;
45114;SDS011;30877;43.706;10.780;2022-11-20T11:07:59;2.90;;;1.58;;
45114;SDS011;30877;43.706;10.780;2022-11-20T11:10:32;2.85;;;1.42;;
45114;SDS011;30877;43.706;10.780;2022-11-20T11:13:05;12.65;;;2.28;;
45114;SDS011;30877;43.706;10.780;2022-11-20T11:15:36;13.70;;;2.55;;
45114;SDS011;30877;43.706;10.780;2022-11-20T11:18:07;5.68;;;1.45;;
45114;SDS011;30877;43.706;10.780;2022-11-20T11:20:37;9.05;;;1.90;;
45114;SDS011;30877;43.706;10.780;2022-11-20T11:23:10;3.35;;;1.30;;
45114;SDS011;30877;43.706;10.780;2022-11-20T11:25:58;6.43;;;1.70;;
45114;SDS011;30877;43.706;10.780;2022-11-20T11:28:27;2.63;;;1.95;;
45114;SDS011;30877;43.706;10.780;2022-11-20T11:30:55;5.60;;;2.80;;
45114;SDS011;30877;43.706;10.780;2022-11-20T11:33:25;3.00;;;1.80;;
45114;SDS011;30877;43.706;10.780;2022-11-20T11:35:54;2.92;;;1.40;;
45114;SDS011;30877;43.706;10.780;2022-11-20T11:38:28;2.78;;;1.70;;
45114;SDS011;30877;43.706;10.780;2022-11-20T11:40:59;3.42;;;2.10;;
45114;SDS011;30877;43.706;10.780;2022-11-20T11:43:29;2.22;;;1.30;;
45114;SDS011;30877;43.706;10.780;2022-11-20T11:46:24;2.97;;;1.90;;
45114;SDS011;30877;43.706;10.780;2022-11-20T11:48:59;2.05;;;1.48;;
45114;SDS011;30877;43.706;10.780;2022-11-20T11:51:31;1.90;;;1.30;;
45114;SDS011;30877;43.706;10.780;2022-11-20T11:54:04;2.75;;;2.35;;
45114;SDS011;30877;43.706;10.780;2022-11-20T11:56:45;3.85;;;2.95;;
45114;SDS011;30877;43.706;10.780;2022-11-20T11:59:15;2.38;;;1.90;;
45114;SDS011;30877;43.706;10.780;2022-11-20T12:01:51;1.98;;;1.58;;
45114;SDS011;30877;43.706;10.780;2022-11-20T12:04:25;2.40;;;1.83;;
45114;SDS011;30877;43.706;10.780;2022-11-20T12:07:08;4.13;;;2.92;;
45114;SDS011;30877;43.706;10.780;2022-11-20T12:10:00;7.15;;;5.93;;
45114;SDS011;30877;43.706;10.780;2022-11-20T12:12:32;4.18;;;3.78;;
45114;SDS011;30877;43.706;10.780;2022-11-20T12:15:06;3.23;;;1.57;;
45114;SDS011;30877;43.706;10.780;2022-11-20T12:17:38;2.28;;;1.67;;
45114;SDS011;30877;43.706;10.780;2022-11-20T12:20:10;2.67;;;2.00;;
45114;SDS011;30877;43.706;10.780;2022-11-20T12:22:41;3.60;;;1.35;;
45114;SDS011;30877;43.706;10.780;2022-11-20T12:25:19;2.28;;;1.70;;
45114;SDS011;30877;43.706;10.780;2022-11-20T12:28:00;2.28;;;0.85;;
45114;SDS011;30877;43.706;10.780;2022-11-20T12:30:52;1.75;;;0.60;;
45114;SDS011;30877;43.706;10.780;2022-11-20T12:33:43;1.20;;;0.80;;
45114;SDS011;30877;43.706;10.780;2022-11-20T12:36:25;1.88;;;0.80;;
45114;SDS011;30877;43.706;10.780;2022-11-20T12:39:07;1.42;;;1.05;;
45114;SDS011;30877;43.706;10.780;2022-11-20T12:41:50;1.60;;;0.93;;
45114;SDS011;30877;43.706;10.780;2022-11-20T12:44:57;2.53;;;1.10;;
45114;SDS011;30877;43.706;10.780;2022-11-20T12:50:19;1.52;;;1.00;;
45114;SDS011;30877;43.706;10.780;2022-11-20T12:52:59;3.20;;;1.40;;
45114;SDS011;30877;43.706;10.780;2022-11-20T12:55:42;1.70;;;1.13;;
45114;SDS011;30877;43.706;10.780;2022-11-20T12:58:19;1.40;;;0.80;;
45114;SDS011;30877;43.706;10.780;2022-11-20T13:00:56;2.22;;;1.20;;
45114;SDS011;30877;43.706;10.780;2022-11-20T13:03:39;3.03;;;1.50;;
45114;SDS011;30877;43.706;10.780;2022-11-20T13:06:12;2.10;;;1.50;;
45114;SDS011;30877;43.706;10.780;2022-11-20T13:08:43;3.67;;;2.17;;
45114;SDS011;30877;43.706;10.780;2022-11-20T13:11:18;2.78;;;2.00;;
45114;SDS011;30877;43.706;10.780;2022-11-20T13:14:04;2.30;;;1.63;;
45114;SDS011;30877;43.706;10.780;2022-11-20T13:16:42;3.25;;;1.35;;
45114;SDS011;30877;43.706;10.780;2022-11-20T13:19:16;2.95;;;1.15;;
45114;SDS011;30877;43.706;10.780;2022-11-20T13:21:45;1.33;;;0.80;;
45114;SDS011;30877;43.706;10.780;2022-11-20T13:24:23;1.55;;;0.93;;
45114;SDS011;30877;43.706;10.780;2022-11-20T13:27:00;2.53;;;1.80;;
45114;SDS011;30877;43.706;10.780;2022-11-20T13:29:29;4.55;;;2.45;;
45114;SDS011;30877;43.706;10.780;2022-11-20T13:32:06;4.95;;;2.03;;
45114;SDS011;30877;43.706;10.780;2022-11-20T13:34:50;2.45;;;1.63;;
45114;SDS011;30877;43.706;10.780;2022-11-20T13:37:27;2.08;;;0.93;;
45114;SDS011;30877;43.706;10.780;2022-11-20T13:40:12;1.48;;;0.90;;
45114;SDS011;30877;43.706;10.780;2022-11-20T13:42:54;1.42;;;0.80;;
45114;SDS011;30877;43.706;10.780;2022-11-20T13:45:25;1.58;;;0.73;;
45114;SDS011;30877;43.706;10.780;2022-11-20T13:47:56;2.58;;;0.70;;
45114;SDS011;30877;43.706;10.780;2022-11-20T13:50:32;1.08;;;0.80;;
45114;SDS011;30877;43.706;10.780;2022-11-20T13:53:22;1.75;;;0.98;;
45114;SDS011;30877;43.706;10.780;2022-11-20T13:56:03;1.90;;;0.70;;
45114;SDS011;30877;43.706;10.780;2022-11-20T13:58:41;1.90;;;0.80;;
45114;SDS011;30877;43.706;10.780;2022-11-20T14:01:17;3.25;;;0.90;;
45114;SDS011;30877;43.706;10.780;2022-11-20T14:03:50;1.48;;;0.70;;
45114;SDS011;30877;43.706;10.780;2022-11-20T14:06:39;1.97;;;0.77;;
45114;SDS011;30877;43.706;10.780;2022-11-20T14:09:10;2.30;;;0.80;;
45114;SDS011;30877;43.706;10.780;2022-11-20T14:11:45;1.90;;;0.80;;
45114;SDS011;30877;43.706;10.780;2022-11-20T14:14:15;1.67;;;0.50;;
45114;SDS011;30877;43.706;10.780;2022-11-20T14:16:46;2.25;;;1.23;;
45114;SDS011;30877;43.706;10.780;2022-11-20T14:19:29;2.22;;;0.90;;
45114;SDS011;30877;43.706;10.780;2022-11-20T14:22:09;1.50;;;1.00;;
45114;SDS011;30877;43.706;10.780;2022-11-20T14:24:44;2.00;;;1.30;;
45114;SDS011;30877;43.706;10.780;2022-11-20T14:27:13;2.20;;;1.33;;
45114;SDS011;30877;43.706;10.780;2022-11-20T14:29:43;3.03;;;1.23;;
45114;SDS011;30877;43.706;10.780;2022-11-20T14:32:14;1.15;;;0.60;;
45114;SDS011;30877;43.706;10.780;2022-11-20T14:34:46;2.75;;;1.10;;
45114;SDS011;30877;43.706;10.780;2022-11-20T14:37:18;1.67;;;0.60;;
45114;SDS011;30877;43.706;10.780;2022-11-20T14:39:50;1.10;;;0.70;;
45114;SDS011;30877;43.706;10.780;2022-11-20T14:42:20;1.20;;;0.50;;
45114;SDS011;30877;43.706;10.780;2022-11-20T14:44:52;1.52;;;0.70;;
45114;SDS011;30877;43.706;10.780;2022-11-20T14:47:23;0.80;;;0.65;;
45114;SDS011;30877;43.706;10.780;2022-11-20T14:49:55;2.03;;;0.93;;
45114;SDS011;30877;43.706;10.780;2022-11-20T14:52:25;3.30;;;0.98;;
45114;SDS011;30877;43.706;10.780;2022-11-20T14:54:55;2.22;;;0.98;;
45114;SDS011;30877;43.706;10.780;2022-11-20T14:57:28;1.58;;;1.10;;
45114;SDS011;30877;43.706;10.780;2022-11-20T15:00:04;1.52;;;1.02;;
45114;SDS011;30877;43.706;10.780;2022-11-20T15:02:38;2.22;;;1.05;;
45114;SDS011;30877;43.706;10.780;2022-11-20T15:05:10;2.33;;;1.67;;
45114;SDS011;30877;43.706;10.780;2022-11-20T15:07:39;3.10;;;1.20;;
45114;SDS011;30877;43.706;10.780;2022-11-20T15:10:13;3.50;;;1.77;;
45114;SDS011;30877;43.706;10.780;2022-11-20T15:12:49;2.20;;;1.80;;